sensor_id;sensor_type;location;lat;lon;timestamp;temperature;humidity
64685;DHT22;51109;47.414;18.954;2024-01-06T00:01:37;6.20;99.90
64685;DHT22;51109;47.414;18.954;2024-01-06T00:04:03;6.20;99.90
64685;DHT22;51109;47.414;18.954;2024-01-06T00:06:29;6.20;99.90
64685;DHT22;51109;47.414;18.954;2024-01-06T00:08:55;6.20;99.90
64685;DHT22;51109;47.414;18.954;2024-01-06T00:11:21;6.20;99.90
64685;DHT22;51109;47.414;18.954;2024-01-06T00:13:47;6.20;99.90
64685;DHT22;51109;47.414;18.954;2024-01-06T00:16:16;6.20;99.90
64685;DHT22;51109;47.414;18.954;2024-01-06T00:18:42;6.20;99.90
64685;DHT22;51109;47.414;18.954;2024-01-06T00:21:08;6.20;99.90
64685;DHT22;51109;47.414;18.954;2024-01-06T00:23:34;6.20;99.90
64685;DHT22;51109;47.414;18.954;2024-01-06T00:25:59;6.20;99.90
64685;DHT22;51109;47.414;18.954;2024-01-06T00:28:25;6.20;99.90
64685;DHT22;51109;47.414;18.954;2024-01-06T00:30:51;6.20;99.90
64685;DHT22;51109;47.414;18.954;2024-01-06T00:33:17;6.20;99.90
64685;DHT22;51109;47.414;18.954;2024-01-06T00:35:42;6.20;99.90
64685;DHT22;51109;47.414;18.954;2024-01-06T00:38:08;6.30;99.90
64685;DHT22;51109;47.414;18.954;2024-01-06T00:40:34;6.40;99.90
64685;DHT22;51109;47.414;18.954;2024-01-06T00:43:00;6.30;99.90
64685;DHT22;51109;47.414;18.954;2024-01-06T00:45:25;6.30;99.90
64685;DHT22;51109;47.414;18.954;2024-01-06T00:47:51;6.30;99.90
64685;DHT22;51109;47.414;18.954;2024-01-06T00:50:18;6.30;99.90
64685;DHT22;51109;47.414;18.954;2024-01-06T00:52:45;6.30;99.90
64685;DHT22;51109;47.414;18.954;2024-01-06T00:55:11;6.30;99.90
64685;DHT22;51109;47.414;18.954;2024-01-06T00:57:36;6.40;99.90
64685;DHT22;51109;47.414;18.954;2024-01-06T01:00:04;6.30;99.90
64685;DHT22;51109;47.414;18.954;2024-01-06T01:02:31;6.30;99.90
64685;DHT22;51109;47.414;18.954;2024-01-06T01:04:57;6.20;99.90
64685;DHT22;51109;47.414;18.954;2024-01-06T01:07:24;6.10;99.90
64685;DHT22;51109;47.414;18.954;2024-01-06T01:09:50;6.10;99.90
64685;DHT22;51109;47.414;18.954;2024-01-06T01:12:15;6.10;99.90
64685;DHT22;51109;47.414;18.954;2024-01-06T01:14:41;6.20;99.90
64685;DHT22;51109;47.414;18.954;2024-01-06T01:17:07;6.10;99.90
64685;DHT22;51109;47.414;18.954;2024-01-06T01:19:33;6.10;99.90
64685;DHT22;51109;47.414;18.954;2024-01-06T01:21:58;6.20;99.90
64685;DHT22;51109;47.414;18.954;2024-01-06T01:24:24;6.10;99.90
64685;DHT22;51109;47.414;18.954;2024-01-06T01:26:50;6.20;99.90
64685;DHT22;51109;47.414;18.954;2024-01-06T01:29:16;6.20;99.90
64685;DHT22;51109;47.414;18.954;2024-01-06T01:31:42;6.10;99.90
64685;DHT22;51109;47.414;18.954;2024-01-06T01:34:08;6.10;99.90
64685;DHT22;51109;47.414;18.954;2024-01-06T01:36:34;6.10;99.90
64685;DHT22;51109;47.414;18.954;2024-01-06T01:39:00;6.10;99.90
64685;DHT22;51109;47.414;18.954;2024-01-06T01:41:25;6.10;99.90
64685;DHT22;51109;47.414;18.954;2024-01-06T01:43:51;6.10;99.90
64685;DHT22;51109;47.414;18.954;2024-01-06T01:46:27;6.20;99.90
64685;DHT22;51109;47.414;18.954;2024-01-06T01:48:54;6.30;99.90
64685;DHT22;51109;47.414;18.954;2024-01-06T01:51:21;6.30;99.90
64685;DHT22;51109;47.414;18.954;2024-01-06T01:53:47;6.30;99.90
64685;DHT22;51109;47.414;18.954;2024-01-06T01:56:14;6.30;99.90
64685;DHT22;51109;47.414;18.954;2024-01-06T01:58:40;6.30;99.90
64685;DHT22;51109;47.414;18.954;2024-01-06T02:01:08;6.30;99.90
64685;DHT22;51109;47.414;18.954;2024-01-06T02:03:34;6.30;99.90
64685;DHT22;51109;47.414;18.954;2024-01-06T02:06:01;6.40;99.90
64685;DHT22;51109;47.414;18.954;2024-01-06T02:08:26;6.30;99.90
64685;DHT22;51109;47.414;18.954;2024-01-06T02:10:54;6.30;99.90
64685;DHT22;51109;47.414;18.954;2024-01-06T02:13:21;9.50;99.90
64685;DHT22;51109;47.414;18.954;2024-01-06T02:15:47;7.50;99.90
64685;DHT22;51109;47.414;18.954;2024-01-06T02:18:12;6.40;99.90
64685;DHT22;51109;47.414;18.954;2024-01-06T02:20:44;6.30;99.90
64685;DHT22;51109;47.414;18.954;2024-01-06T02:23:12;6.30;99.90
64685;DHT22;51109;47.414;18.954;2024-01-06T02:25:37;6.40;99.90
64685;DHT22;51109;47.414;18.954;2024-01-06T02:28:03;6.30;99.90
64685;DHT22;51109;47.414;18.954;2024-01-06T02:30:29;6.30;99.90
64685;DHT22;51109;47.414;18.954;2024-01-06T02:32:55;6.30;99.90
64685;DHT22;51109;47.414;18.954;2024-01-06T02:35:21;6.30;99.90
64685;DHT22;51109;47.414;18.954;2024-01-06T02:37:46;6.30;99.90
64685;DHT22;51109;47.414;18.954;2024-01-06T02:40:13;6.30;99.90
64685;DHT22;51109;47.414;18.954;2024-01-06T02:42:39;6.30;99.90
64685;DHT22;51109;47.414;18.954;2024-01-06T02:45:07;6.20;99.90
64685;DHT22;51109;47.414;18.954;2024-01-06T02:47:33;6.20;99.90
64685;DHT22;51109;47.414;18.954;2024-01-06T02:49:58;6.20;99.90
64685;DHT22;51109;47.414;18.954;2024-01-06T02:52:24;6.20;99.90
64685;DHT22;51109;47.414;18.954;2024-01-06T02:54:50;6.20;99.90
64685;DHT22;51109;47.414;18.954;2024-01-06T02:57:16;6.20;99.90
64685;DHT22;51109;47.414;18.954;2024-01-06T02:59:41;6.20;99.90
64685;DHT22;51109;47.414;18.954;2024-01-06T03:02:07;6.20;99.90
64685;DHT22;51109;47.414;18.954;2024-01-06T03:04:33;6.20;99.90
64685;DHT22;51109;47.414;18.954;2024-01-06T03:06:59;6.20;99.90
64685;DHT22;51109;47.414;18.954;2024-01-06T03:09:24;6.20;99.90
64685;DHT22;51109;47.414;18.954;2024-01-06T03:11:50;6.20;99.90
64685;DHT22;51109;47.414;18.954;2024-01-06T03:14:16;6.20;99.90
64685;DHT22;51109;47.414;18.954;2024-01-06T03:16:42;6.20;99.90
64685;DHT22;51109;47.414;18.954;2024-01-06T03:19:07;6.30;99.90
64685;DHT22;51109;47.414;18.954;2024-01-06T03:21:33;6.20;99.90
64685;DHT22;51109;47.414;18.954;2024-01-06T03:23:59;6.20;99.90
64685;DHT22;51109;47.414;18.954;2024-01-06T03:26:25;6.20;99.90
64685;DHT22;51109;47.414;18.954;2024-01-06T03:28:51;6.30;99.90
64685;DHT22;51109;47.414;18.954;2024-01-06T03:31:17;6.30;99.90
64685;DHT22;51109;47.414;18.954;2024-01-06T03:33:44;6.30;99.90
64685;DHT22;51109;47.414;18.954;2024-01-06T03:36:12;6.30;99.90
64685;DHT22;51109;47.414;18.954;2024-01-06T03:38:37;6.30;99.90
64685;DHT22;51109;47.414;18.954;2024-01-06T03:41:03;6.30;99.90
64685;DHT22;51109;47.414;18.954;2024-01-06T03:43:29;6.20;99.90
64685;DHT22;51109;47.414;18.954;2024-01-06T03:45:55;6.20;99.90
64685;DHT22;51109;47.414;18.954;2024-01-06T03:48:22;6.20;99.90
64685;DHT22;51109;47.414;18.954;2024-01-06T03:50:48;6.30;99.90
64685;DHT22;51109;47.414;18.954;2024-01-06T03:53:13;6.30;99.90
64685;DHT22;51109;47.414;18.954;2024-01-06T03:55:39;6.30;99.90
64685;DHT22;51109;47.414;18.954;2024-01-06T03:58:05;6.30;99.90
64685;DHT22;51109;47.414;18.954;2024-01-06T04:00:33;6.30;99.90
64685;DHT22;51109;47.414;18.954;2024-01-06T04:02:59;6.30;99.90
64685;DHT22;51109;47.414;18.954;2024-01-06T04:05:24;6.30;99.90
64685;DHT22;51109;47.414;18.954;2024-01-06T04:07:50;6.30;99.90
64685;DHT22;51109;47.414;18.954;2024-01-06T04:10:16;6.20;99.90
64685;DHT22;51109;47.414;18.954;2024-01-06T04:12:42;6.20;99.90
64685;DHT22;51109;47.414;18.954;2024-01-06T04:15:08;6.20;99.90
64685;DHT22;51109;47.414;18.954;2024-01-06T04:17:34;6.10;99.90
64685;DHT22;51109;47.414;18.954;2024-01-06T04:20:00;6.20;99.90
64685;DHT22;51109;47.414;18.954;2024-01-06T04:22:26;6.10;99.90
64685;DHT22;51109;47.414;18.954;2024-01-06T04:24:51;6.10;99.90
64685;DHT22;51109;47.414;18.954;2024-01-06T04:27:17;6.10;99.90
64685;DHT22;51109;47.414;18.954;2024-01-06T04:29:43;6.10;99.90
64685;DHT22;51109;47.414;18.954;2024-01-06T04:32:09;6.10;99.90
64685;DHT22;51109;47.414;18.954;2024-01-06T04:34:35;6.00;99.90
64685;DHT22;51109;47.414;18.954;2024-01-06T04:37:01;6.00;99.90
64685;DHT22;51109;47.414;18.954;2024-01-06T04:39:26;5.90;99.90
64685;DHT22;51109;47.414;18.954;2024-01-06T04:41:52;6.00;99.90
64685;DHT22;51109;47.414;18.954;2024-01-06T04:44:20;6.00;99.90
64685;DHT22;51109;47.414;18.954;2024-01-06T04:46:47;5.90;99.90
64685;DHT22;51109;47.414;18.954;2024-01-06T04:49:12;5.80;99.90
64685;DHT22;51109;47.414;18.954;2024-01-06T04:51:38;5.80;99.90
64685;DHT22;51109;47.414;18.954;2024-01-06T04:54:04;5.80;99.90
64685;DHT22;51109;47.414;18.954;2024-01-06T04:56:30;5.80;99.90
64685;DHT22;51109;47.414;18.954;2024-01-06T04:58:55;5.70;99.90
64685;DHT22;51109;47.414;18.954;2024-01-06T05:01:23;5.70;99.90
64685;DHT22;51109;47.414;18.954;2024-01-06T05:03:49;5.70;99.90
64685;DHT22;51109;47.414;18.954;2024-01-06T05:06:15;5.70;99.90
64685;DHT22;51109;47.414;18.954;2024-01-06T05:08:41;5.70;99.90
64685;DHT22;51109;47.414;18.954;2024-01-06T05:11:11;5.70;99.90
64685;DHT22;51109;47.414;18.954;2024-01-06T05:13:37;5.70;99.90
64685;DHT22;51109;47.414;18.954;2024-01-06T05:16:03;5.70;99.90
64685;DHT22;51109;47.414;18.954;2024-01-06T05:18:29;5.70;99.90
64685;DHT22;51109;47.414;18.954;2024-01-06T05:20:55;5.70;99.90
64685;DHT22;51109;47.414;18.954;2024-01-06T05:23:22;5.70;99.90
64685;DHT22;51109;47.414;18.954;2024-01-06T05:25:47;5.70;99.90
64685;DHT22;51109;47.414;18.954;2024-01-06T05:28:13;5.70;99.90
64685;DHT22;51109;47.414;18.954;2024-01-06T05:30:39;5.70;99.90
64685;DHT22;51109;47.414;18.954;2024-01-06T05:33:05;5.70;99.90
64685;DHT22;51109;47.414;18.954;2024-01-06T05:35:31;5.70;99.90
64685;DHT22;51109;47.414;18.954;2024-01-06T05:37:57;5.80;99.90
64685;DHT22;51109;47.414;18.954;2024-01-06T05:40:22;5.80;99.90
64685;DHT22;51109;47.414;18.954;2024-01-06T05:42:48;5.80;99.90
64685;DHT22;51109;47.414;18.954;2024-01-06T05:45:14;5.80;99.90
64685;DHT22;51109;47.414;18.954;2024-01-06T05:47:40;5.80;99.90
64685;DHT22;51109;47.414;18.954;2024-01-06T05:50:06;5.80;99.90
64685;DHT22;51109;47.414;18.954;2024-01-06T05:52:35;5.80;99.90
64685;DHT22;51109;47.414;18.954;2024-01-06T05:55:01;5.80;99.90
64685;DHT22;51109;47.414;18.954;2024-01-06T05:57:27;5.80;99.90
64685;DHT22;51109;47.414;18.954;2024-01-06T05:59:53;5.80;99.90
64685;DHT22;51109;47.414;18.954;2024-01-06T06:02:18;5.80;99.90
64685;DHT22;51109;47.414;18.954;2024-01-06T06:04:44;5.80;99.90
64685;DHT22;51109;47.414;18.954;2024-01-06T06:07:10;5.80;99.90
64685;DHT22;51109;47.414;18.954;2024-01-06T06:09:36;5.70;99.90
64685;DHT22;51109;47.414;18.954;2024-01-06T06:12:03;5.70;99.90
64685;DHT22;51109;47.414;18.954;2024-01-06T06:14:31;5.70;99.90
64685;DHT22;51109;47.414;18.954;2024-01-06T06:16:57;5.70;99.90
64685;DHT22;51109;47.414;18.954;2024-01-06T06:19:26;5.70;99.90
64685;DHT22;51109;47.414;18.954;2024-01-06T06:21:51;5.70;99.90
64685;DHT22;51109;47.414;18.954;2024-01-06T06:24:18;5.70;99.90
64685;DHT22;51109;47.414;18.954;2024-01-06T06:26:43;5.70;99.90
64685;DHT22;51109;47.414;18.954;2024-01-06T06:29:09;5.70;99.90
64685;DHT22;51109;47.414;18.954;2024-01-06T06:31:43;5.70;99.90
64685;DHT22;51109;47.414;18.954;2024-01-06T06:34:10;5.70;99.90
64685;DHT22;51109;47.414;18.954;2024-01-06T06:36:36;5.60;99.90
64685;DHT22;51109;47.414;18.954;2024-01-06T06:39:02;5.60;99.90
64685;DHT22;51109;47.414;18.954;2024-01-06T06:41:30;5.60;99.90
64685;DHT22;51109;47.414;18.954;2024-01-06T06:43:59;5.60;99.90
64685;DHT22;51109;47.414;18.954;2024-01-06T06:46:25;5.60;99.90
64685;DHT22;51109;47.414;18.954;2024-01-06T06:48:51;5.60;99.90
64685;DHT22;51109;47.414;18.954;2024-01-06T06:51:17;5.60;99.90
64685;DHT22;51109;47.414;18.954;2024-01-06T06:53:46;5.60;99.90
64685;DHT22;51109;47.414;18.954;2024-01-06T06:56:12;5.60;99.90
64685;DHT22;51109;47.414;18.954;2024-01-06T06:58:40;5.40;99.90
64685;DHT22;51109;47.414;18.954;2024-01-06T07:01:06;5.60;99.90
64685;DHT22;51109;47.414;18.954;2024-01-06T07:03:41;5.60;99.90
64685;DHT22;51109;47.414;18.954;2024-01-06T07:06:13;5.50;99.90
64685;DHT22;51109;47.414;18.954;2024-01-06T07:08:42;5.60;99.90
64685;DHT22;51109;47.414;18.954;2024-01-06T07:11:08;5.50;99.90
64685;DHT22;51109;47.414;18.954;2024-01-06T07:13:34;5.60;99.90
64685;DHT22;51109;47.414;18.954;2024-01-06T07:16:00;5.60;99.90
64685;DHT22;51109;47.414;18.954;2024-01-06T07:18:26;5.60;99.90
64685;DHT22;51109;47.414;18.954;2024-01-06T07:20:52;5.60;99.90
64685;DHT22;51109;47.414;18.954;2024-01-06T07:23:17;5.60;99.90
64685;DHT22;51109;47.414;18.954;2024-01-06T07:25:43;5.60;99.90
64685;DHT22;51109;47.414;18.954;2024-01-06T07:28:09;5.60;99.90
64685;DHT22;51109;47.414;18.954;2024-01-06T07:30:35;5.60;99.90
64685;DHT22;51109;47.414;18.954;2024-01-06T07:33:00;5.60;99.90
64685;DHT22;51109;47.414;18.954;2024-01-06T07:35:26;5.70;99.90
64685;DHT22;51109;47.414;18.954;2024-01-06T07:37:52;5.60;99.90
64685;DHT22;51109;47.414;18.954;2024-01-06T07:40:18;5.60;99.90
64685;DHT22;51109;47.414;18.954;2024-01-06T07:42:44;5.70;99.90
64685;DHT22;51109;47.414;18.954;2024-01-06T07:45:10;6.00;99.90
64685;DHT22;51109;47.414;18.954;2024-01-06T07:47:36;5.70;99.90
64685;DHT22;51109;47.414;18.954;2024-01-06T07:50:02;5.70;99.90
64685;DHT22;51109;47.414;18.954;2024-01-06T07:52:31;5.70;99.90
64685;DHT22;51109;47.414;18.954;2024-01-06T07:54:56;5.70;99.90
64685;DHT22;51109;47.414;18.954;2024-01-06T07:57:22;5.70;99.90
64685;DHT22;51109;47.414;18.954;2024-01-06T07:59:48;5.70;99.90
64685;DHT22;51109;47.414;18.954;2024-01-06T08:02:14;5.70;99.90
64685;DHT22;51109;47.414;18.954;2024-01-06T08:04:40;5.70;99.90
64685;DHT22;51109;47.414;18.954;2024-01-06T08:07:05;5.80;99.90
64685;DHT22;51109;47.414;18.954;2024-01-06T08:09:31;5.70;99.90
64685;DHT22;51109;47.414;18.954;2024-01-06T08:11:57;5.80;99.90
64685;DHT22;51109;47.414;18.954;2024-01-06T08:14:23;5.80;99.90
64685;DHT22;51109;47.414;18.954;2024-01-06T08:16:49;5.80;99.90
64685;DHT22;51109;47.414;18.954;2024-01-06T08:19:14;5.80;99.90
64685;DHT22;51109;47.414;18.954;2024-01-06T08:21:40;5.80;99.90
64685;DHT22;51109;47.414;18.954;2024-01-06T08:24:06;5.80;99.90
64685;DHT22;51109;47.414;18.954;2024-01-06T08:26:32;5.80;99.90
64685;DHT22;51109;47.414;18.954;2024-01-06T08:28:59;5.80;99.90
64685;DHT22;51109;47.414;18.954;2024-01-06T08:31:25;5.80;99.90
64685;DHT22;51109;47.414;18.954;2024-01-06T08:33:50;5.80;99.90
64685;DHT22;51109;47.414;18.954;2024-01-06T08:36:16;5.80;99.90
64685;DHT22;51109;47.414;18.954;2024-01-06T08:38:42;5.80;99.90
64685;DHT22;51109;47.414;18.954;2024-01-06T08:41:08;5.80;99.90
64685;DHT22;51109;47.414;18.954;2024-01-06T08:43:34;5.80;99.90
64685;DHT22;51109;47.414;18.954;2024-01-06T08:46:00;5.70;99.90
64685;DHT22;51109;47.414;18.954;2024-01-06T08:48:26;5.80;99.90
64685;DHT22;51109;47.414;18.954;2024-01-06T08:50:51;5.80;99.90
64685;DHT22;51109;47.414;18.954;2024-01-06T08:53:17;5.80;99.90
64685;DHT22;51109;47.414;18.954;2024-01-06T08:55:43;5.80;99.90
64685;DHT22;51109;47.414;18.954;2024-01-06T08:58:09;5.80;99.90
64685;DHT22;51109;47.414;18.954;2024-01-06T09:00:34;5.80;99.90
64685;DHT22;51109;47.414;18.954;2024-01-06T09:03:00;5.80;99.90
64685;DHT22;51109;47.414;18.954;2024-01-06T09:05:26;5.80;99.90
64685;DHT22;51109;47.414;18.954;2024-01-06T09:07:52;5.80;99.90
64685;DHT22;51109;47.414;18.954;2024-01-06T09:10:18;5.80;99.90
64685;DHT22;51109;47.414;18.954;2024-01-06T09:12:43;5.80;99.90
64685;DHT22;51109;47.414;18.954;2024-01-06T09:15:09;5.80;99.90
64685;DHT22;51109;47.414;18.954;2024-01-06T09:17:35;5.80;99.90
64685;DHT22;51109;47.414;18.954;2024-01-06T09:20:01;5.90;99.90
64685;DHT22;51109;47.414;18.954;2024-01-06T09:22:28;5.90;99.90
64685;DHT22;51109;47.414;18.954;2024-01-06T09:24:53;5.80;99.90
64685;DHT22;51109;47.414;18.954;2024-01-06T09:27:19;5.90;99.90
64685;DHT22;51109;47.414;18.954;2024-01-06T09:29:45;5.90;99.90
64685;DHT22;51109;47.414;18.954;2024-01-06T09:32:11;5.90;99.90
64685;DHT22;51109;47.414;18.954;2024-01-06T09:34:38;5.90;99.90
64685;DHT22;51109;47.414;18.954;2024-01-06T09:37:04;5.90;99.90
64685;DHT22;51109;47.414;18.954;2024-01-06T09:39:30;5.90;99.90
64685;DHT22;51109;47.414;18.954;2024-01-06T09:41:57;6.00;99.90
64685;DHT22;51109;47.414;18.954;2024-01-06T09:44:24;6.00;99.90
64685;DHT22;51109;47.414;18.954;2024-01-06T09:46:50;6.00;99.90
64685;DHT22;51109;47.414;18.954;2024-01-06T09:49:23;6.00;99.90
64685;DHT22;51109;47.414;18.954;2024-01-06T09:51:49;6.00;99.90
64685;DHT22;51109;47.414;18.954;2024-01-06T09:54:23;6.10;99.90
64685;DHT22;51109;47.414;18.954;2024-01-06T09:56:52;6.00;99.90
64685;DHT22;51109;47.414;18.954;2024-01-06T09:59:18;6.00;99.90
64685;DHT22;51109;47.414;18.954;2024-01-06T10:01:47;6.10;99.90
64685;DHT22;51109;47.414;18.954;2024-01-06T10:04:12;6.10;99.90
64685;DHT22;51109;47.414;18.954;2024-01-06T10:06:41;6.10;99.90
64685;DHT22;51109;47.414;18.954;2024-01-06T10:09:07;6.20;99.90
64685;DHT22;51109;47.414;18.954;2024-01-06T10:11:35;6.20;99.90
64685;DHT22;51109;47.414;18.954;2024-01-06T10:14:03;6.20;99.90
64685;DHT22;51109;47.414;18.954;2024-01-06T10:16:29;6.30;99.90
64685;DHT22;51109;47.414;18.954;2024-01-06T10:18:54;6.30;99.90
64685;DHT22;51109;47.414;18.954;2024-01-06T10:21:25;6.30;99.90
64685;DHT22;51109;47.414;18.954;2024-01-06T10:23:51;6.30;99.90
64685;DHT22;51109;47.414;18.954;2024-01-06T10:26:17;6.30;99.90
64685;DHT22;51109;47.414;18.954;2024-01-06T10:28:43;6.40;99.90
64685;DHT22;51109;47.414;18.954;2024-01-06T10:31:09;6.40;99.90
64685;DHT22;51109;47.414;18.954;2024-01-06T10:33:35;6.40;99.90
64685;DHT22;51109;47.414;18.954;2024-01-06T10:36:01;6.40;99.90
64685;DHT22;51109;47.414;18.954;2024-01-06T10:38:29;6.30;99.90
64685;DHT22;51109;47.414;18.954;2024-01-06T10:41:04;6.30;99.90
64685;DHT22;51109;47.414;18.954;2024-01-06T10:43:34;6.30;99.90
64685;DHT22;51109;47.414;18.954;2024-01-06T10:46:03;6.30;99.90
64685;DHT22;51109;47.414;18.954;2024-01-06T10:48:32;6.30;99.90
64685;DHT22;51109;47.414;18.954;2024-01-06T10:50:59;6.40;99.90
64685;DHT22;51109;47.414;18.954;2024-01-06T10:53:27;6.40;99.90
64685;DHT22;51109;47.414;18.954;2024-01-06T10:55:53;6.40;99.90
64685;DHT22;51109;47.414;18.954;2024-01-06T10:58:19;6.30;99.90
64685;DHT22;51109;47.414;18.954;2024-01-06T11:00:46;6.40;99.90
64685;DHT22;51109;47.414;18.954;2024-01-06T11:03:13;6.50;99.90
64685;DHT22;51109;47.414;18.954;2024-01-06T11:05:43;6.50;99.90
64685;DHT22;51109;47.414;18.954;2024-01-06T11:10:37;6.50;99.90
64685;DHT22;51109;47.414;18.954;2024-01-06T11:13:12;6.50;99.90
64685;DHT22;51109;47.414;18.954;2024-01-06T11:15:42;6.50;99.90
64685;DHT22;51109;47.414;18.954;2024-01-06T11:18:09;6.50;99.90
64685;DHT22;51109;47.414;18.954;2024-01-06T11:20:34;6.50;99.90
64685;DHT22;51109;47.414;18.954;2024-01-06T11:23:20;6.60;99.90
64685;DHT22;51109;47.414;18.954;2024-01-06T11:25:46;6.60;99.90
64685;DHT22;51109;47.414;18.954;2024-01-06T11:28:12;6.70;99.90
64685;DHT22;51109;47.414;18.954;2024-01-06T11:30:38;6.60;99.90
64685;DHT22;51109;47.414;18.954;2024-01-06T11:33:05;6.70;99.90
64685;DHT22;51109;47.414;18.954;2024-01-06T11:35:31;6.50;99.90
64685;DHT22;51109;47.414;18.954;2024-01-06T11:38:00;6.70;99.90
64685;DHT22;51109;47.414;18.954;2024-01-06T11:40:36;7.50;99.90
64685;DHT22;51109;47.414;18.954;2024-01-06T11:43:10;6.80;99.90
64685;DHT22;51109;47.414;18.954;2024-01-06T11:45:40;6.80;99.90
64685;DHT22;51109;47.414;18.954;2024-01-06T11:48:08;6.70;99.90
64685;DHT22;51109;47.414;18.954;2024-01-06T11:50:37;6.70;99.90
64685;DHT22;51109;47.414;18.954;2024-01-06T11:53:04;6.70;99.90
64685;DHT22;51109;47.414;18.954;2024-01-06T11:55:30;6.70;99.90
64685;DHT22;51109;47.414;18.954;2024-01-06T11:58:00;6.70;99.90
64685;DHT22;51109;47.414;18.954;2024-01-06T12:00:30;6.70;99.90
64685;DHT22;51109;47.414;18.954;2024-01-06T12:02:57;6.70;99.90
64685;DHT22;51109;47.414;18.954;2024-01-06T12:05:23;6.60;99.90
64685;DHT22;51109;47.414;18.954;2024-01-06T12:10:21;6.50;99.90
64685;DHT22;51109;47.414;18.954;2024-01-06T12:17:50;6.50;99.90
64685;DHT22;51109;47.414;18.954;2024-01-06T12:20:16;6.40;99.90
64685;DHT22;51109;47.414;18.954;2024-01-06T12:22:42;6.40;99.90
64685;DHT22;51109;47.414;18.954;2024-01-06T12:25:09;6.40;99.90
64685;DHT22;51109;47.414;18.954;2024-01-06T12:27:35;6.40;99.90
64685;DHT22;51109;47.414;18.954;2024-01-06T12:30:01;6.40;99.90
64685;DHT22;51109;47.414;18.954;2024-01-06T12:32:27;6.40;99.90
64685;DHT22;51109;47.414;18.954;2024-01-06T12:34:53;6.30;99.90
64685;DHT22;51109;47.414;18.954;2024-01-06T12:37:19;6.30;99.90
64685;DHT22;51109;47.414;18.954;2024-01-06T12:39:47;6.40;99.90
64685;DHT22;51109;47.414;18.954;2024-01-06T12:42:15;6.30;99.90
64685;DHT22;51109;47.414;18.954;2024-01-06T12:44:42;6.30;99.90
64685;DHT22;51109;47.414;18.954;2024-01-06T12:47:08;6.40;99.90
64685;DHT22;51109;47.414;18.954;2024-01-06T12:49:34;6.30;99.90
64685;DHT22;51109;47.414;18.954;2024-01-06T12:52:01;6.40;99.90
64685;DHT22;51109;47.414;18.954;2024-01-06T12:56:52;6.40;99.90
64685;DHT22;51109;47.414;18.954;2024-01-06T12:59:18;6.40;99.90
64685;DHT22;51109;47.414;18.954;2024-01-06T13:01:44;6.40;99.90
64685;DHT22;51109;47.414;18.954;2024-01-06T13:04:10;6.50;99.90
64685;DHT22;51109;47.414;18.954;2024-01-06T13:06:36;6.50;99.90
64685;DHT22;51109;47.414;18.954;2024-01-06T13:09:02;6.40;99.90
64685;DHT22;51109;47.414;18.954;2024-01-06T13:11:32;6.50;99.90
64685;DHT22;51109;47.414;18.954;2024-01-06T13:14:00;6.70;99.90
64685;DHT22;51109;47.414;18.954;2024-01-06T13:16:27;6.50;99.90
64685;DHT22;51109;47.414;18.954;2024-01-06T13:18:53;6.50;99.90
64685;DHT22;51109;47.414;18.954;2024-01-06T13:21:18;6.40;99.90
64685;DHT22;51109;47.414;18.954;2024-01-06T13:23:44;6.50;99.90
64685;DHT22;51109;47.414;18.954;2024-01-06T13:26:10;6.50;99.90
64685;DHT22;51109;47.414;18.954;2024-01-06T13:28:36;6.50;99.90
64685;DHT22;51109;47.414;18.954;2024-01-06T13:31:05;6.50;99.90
64685;DHT22;51109;47.414;18.954;2024-01-06T13:33:30;6.50;99.90
64685;DHT22;51109;47.414;18.954;2024-01-06T13:35:56;6.50;99.90
64685;DHT22;51109;47.414;18.954;2024-01-06T13:38:22;6.50;99.90
64685;DHT22;51109;47.414;18.954;2024-01-06T13:40:48;6.50;99.90
64685;DHT22;51109;47.414;18.954;2024-01-06T13:43:14;6.60;99.90
64685;DHT22;51109;47.414;18.954;2024-01-06T13:45:42;6.50;99.90
64685;DHT22;51109;47.414;18.954;2024-01-06T13:48:09;6.50;99.90
64685;DHT22;51109;47.414;18.954;2024-01-06T13:50:35;6.60;99.90
64685;DHT22;51109;47.414;18.954;2024-01-06T13:53:01;6.60;99.90
64685;DHT22;51109;47.414;18.954;2024-01-06T13:55:28;6.60;99.90
64685;DHT22;51109;47.414;18.954;2024-01-06T13:57:54;6.60;99.90
64685;DHT22;51109;47.414;18.954;2024-01-06T14:00:20;6.60;99.90
64685;DHT22;51109;47.414;18.954;2024-01-06T14:02:46;6.60;99.90
64685;DHT22;51109;47.414;18.954;2024-01-06T14:05:14;6.50;99.90
64685;DHT22;51109;47.414;18.954;2024-01-06T14:07:41;6.50;99.90
64685;DHT22;51109;47.414;18.954;2024-01-06T14:10:11;6.50;99.90
64685;DHT22;51109;47.414;18.954;2024-01-06T14:12:38;6.50;99.90
64685;DHT22;51109;47.414;18.954;2024-01-06T14:15:04;6.60;99.90
64685;DHT22;51109;47.414;18.954;2024-01-06T14:17:32;6.50;99.90
64685;DHT22;51109;47.414;18.954;2024-01-06T14:19:58;6.60;99.90
64685;DHT22;51109;47.414;18.954;2024-01-06T14:22:24;6.60;99.90
64685;DHT22;51109;47.414;18.954;2024-01-06T14:24:50;6.60;99.90
64685;DHT22;51109;47.414;18.954;2024-01-06T14:27:20;6.60;99.90
64685;DHT22;51109;47.414;18.954;2024-01-06T14:29:46;6.60;99.90
64685;DHT22;51109;47.414;18.954;2024-01-06T14:32:17;6.60;99.90
64685;DHT22;51109;47.414;18.954;2024-01-06T14:34:42;6.60;99.90
64685;DHT22;51109;47.414;18.954;2024-01-06T14:37:08;6.60;99.90
64685;DHT22;51109;47.414;18.954;2024-01-06T14:39:34;6.60;99.90
64685;DHT22;51109;47.414;18.954;2024-01-06T14:42:02;6.60;99.90
64685;DHT22;51109;47.414;18.954;2024-01-06T14:44:28;6.60;99.90
64685;DHT22;51109;47.414;18.954;2024-01-06T14:46:55;6.60;99.90
64685;DHT22;51109;47.414;18.954;2024-01-06T14:49:21;6.60;99.90
64685;DHT22;51109;47.414;18.954;2024-01-06T14:51:46;6.60;99.90
64685;DHT22;51109;47.414;18.954;2024-01-06T14:54:12;6.70;99.90
64685;DHT22;51109;47.414;18.954;2024-01-06T14:56:38;6.60;99.90
64685;DHT22;51109;47.414;18.954;2024-01-06T14:59:05;6.60;99.90
64685;DHT22;51109;47.414;18.954;2024-01-06T15:01:34;6.60;99.90
64685;DHT22;51109;47.414;18.954;2024-01-06T15:04:00;6.60;99.90
64685;DHT22;51109;47.414;18.954;2024-01-06T15:06:26;6.60;99.90
64685;DHT22;51109;47.414;18.954;2024-01-06T15:08:51;6.60;99.90
64685;DHT22;51109;47.414;18.954;2024-01-06T15:11:17;6.60;99.90
64685;DHT22;51109;47.414;18.954;2024-01-06T15:13:43;6.70;99.90
64685;DHT22;51109;47.414;18.954;2024-01-06T15:16:10;6.70;99.90
64685;DHT22;51109;47.414;18.954;2024-01-06T15:18:36;6.70;99.90
64685;DHT22;51109;47.414;18.954;2024-01-06T15:21:02;6.70;99.90
64685;DHT22;51109;47.414;18.954;2024-01-06T15:23:28;6.70;99.90
64685;DHT22;51109;47.414;18.954;2024-01-06T15:25:54;6.70;99.90
64685;DHT22;51109;47.414;18.954;2024-01-06T15:28:21;6.70;99.90
64685;DHT22;51109;47.414;18.954;2024-01-06T15:30:47;6.70;99.90
64685;DHT22;51109;47.414;18.954;2024-01-06T15:33:12;6.70;99.90
64685;DHT22;51109;47.414;18.954;2024-01-06T15:35:40;6.70;99.90
64685;DHT22;51109;47.414;18.954;2024-01-06T15:38:05;6.70;99.90